createdAt,value
2024-04-06T00:00:23.649Z,54.30
2024-04-06T00:01:23.638Z,64.13
2024-04-06T00:02:23.594Z,62.52
2024-04-06T00:03:26.098Z,60.91
2024-04-06T00:04:24.937Z,60.59
2024-04-06T00:05:23.593Z,56.24
2024-04-06T00:06:23.551Z,67.68
2024-04-06T00:07:23.545Z,62.52
2024-04-06T00:08:23.577Z,63.00
2024-04-06T00:09:23.583Z,50.27
2024-04-06T00:10:23.561Z,49.63
2024-04-06T00:11:23.533Z,51.08
2024-04-06T00:12:23.517Z,48.02
2024-04-06T00:13:23.495Z,47.53
2024-04-06T00:14:23.533Z,55.11
2024-04-06T00:15:23.491Z,64.29
2024-04-06T00:16:23.455Z,53.17
2024-04-06T00:17:23.526Z,62.68
2024-04-06T00:18:23.463Z,55.27
2024-04-06T00:19:23.447Z,59.30
2024-04-06T00:20:23.485Z,59.62
2024-04-06T00:21:23.407Z,52.85
2024-04-06T00:22:23.382Z,65.74
2024-04-06T00:23:23.390Z,58.33
2024-04-06T00:24:23.347Z,49.31
2024-04-06T00:25:23.387Z,62.36
2024-04-06T00:26:23.343Z,64.61
2024-04-06T00:27:23.377Z,55.75
2024-04-06T00:28:23.355Z,57.85
2024-04-06T00:29:23.372Z,55.59
2024-04-06T00:30:23.279Z,48.18
2024-04-06T00:31:23.285Z,55.11
2024-04-06T00:32:23.309Z,57.36
2024-04-06T00:33:23.271Z,52.21
2024-04-06T00:34:23.256Z,52.05
2024-04-06T00:35:23.309Z,57.85
2024-04-06T00:36:23.279Z,63.97
2024-04-06T00:37:23.236Z,48.34
2024-04-06T00:38:23.232Z,48.18
2024-04-06T00:39:23.172Z,50.43
2024-04-06T00:40:23.180Z,47.70
2024-04-06T00:41:23.195Z,61.55
2024-04-06T00:42:23.159Z,65.10
2024-04-06T00:43:23.145Z,53.01
2024-04-06T00:44:23.139Z,54.14
2024-04-06T00:45:23.139Z,56.40
2024-04-06T00:46:23.153Z,48.18
2024-04-06T00:47:23.099Z,56.88
2024-04-06T00:48:23.116Z,63.16
2024-04-06T00:49:23.047Z,62.36
2024-04-06T00:50:23.100Z,64.78
2024-04-06T00:51:23.097Z,59.94
2024-04-06T00:52:23.050Z,57.20
2024-04-06T00:53:23.023Z,59.94
2024-04-06T00:54:23.045Z,56.40
2024-04-06T00:55:23.033Z,47.86
2024-04-06T00:56:23.043Z,46.89
2024-04-06T00:57:22.997Z,51.08
2024-04-06T00:58:22.993Z,61.39
2024-04-06T00:59:23.014Z,61.39
2024-04-06T01:00:22.930Z,56.88
2024-04-06T01:01:24.417Z,44.96
2024-04-06T01:02:23.952Z,51.56
2024-04-06T01:03:22.899Z,55.75
2024-04-06T01:04:22.898Z,51.24
2024-04-06T01:05:22.916Z,55.91
2024-04-06T01:06:22.881Z,58.01
2024-04-06T01:07:22.872Z,50.76
2024-04-06T01:08:22.863Z,47.86
2024-04-06T01:09:22.836Z,45.28
2024-04-06T01:10:22.873Z,54.46
2024-04-06T01:11:22.862Z,65.58
2024-04-06T01:12:22.844Z,62.68
2024-04-06T01:13:22.822Z,58.01
2024-04-06T01:14:22.827Z,57.36
2024-04-06T01:15:22.794Z,59.46
2024-04-06T01:16:22.813Z,48.66
2024-04-06T01:17:22.805Z,52.69
2024-04-06T01:18:22.741Z,53.01
2024-04-06T01:19:22.722Z,59.30
2024-04-06T01:20:22.720Z,57.36
2024-04-06T01:21:22.736Z,63.00
2024-04-06T01:22:22.674Z,62.68
2024-04-06T01:23:22.688Z,51.24
2024-04-06T01:24:22.681Z,47.05
2024-04-06T01:25:22.685Z,48.82
2024-04-06T01:26:22.716Z,58.97
2024-04-06T01:27:22.652Z,50.11
2024-04-06T01:28:22.655Z,61.87
2024-04-06T01:29:23.197Z,47.86
2024-04-06T01:30:22.622Z,47.53
2024-04-06T01:31:22.603Z,50.11
2024-04-06T01:32:22.629Z,49.31
2024-04-06T01:33:22.572Z,54.14
2024-04-06T01:34:22.582Z,53.98
2024-04-06T01:35:22.638Z,49.15
2024-04-06T01:36:22.521Z,56.40
2024-04-06T01:37:22.547Z,51.24
2024-04-06T01:38:22.525Z,58.33
2024-04-06T01:39:22.553Z,62.52
2024-04-06T01:40:22.479Z,61.23
2024-04-06T01:41:22.525Z,59.30
2024-04-06T01:42:22.492Z,57.04
2024-04-06T01:43:22.473Z,58.65
2024-04-06T01:44:22.499Z,47.86
2024-04-06T01:45:22.452Z,46.89
2024-04-06T01:46:22.432Z,61.87
2024-04-06T01:47:22.571Z,59.78
2024-04-06T01:48:22.412Z,61.07
2024-04-06T01:49:22.384Z,61.71
2024-04-06T01:50:22.437Z,59.94
2024-04-06T01:51:22.357Z,60.26
2024-04-06T01:52:22.377Z,59.62
2024-04-06T01:53:22.392Z,49.31
2024-04-06T01:54:22.378Z,59.14
2024-04-06T01:55:22.337Z,48.34
2024-04-06T01:56:22.330Z,56.72
2024-04-06T01:57:22.298Z,50.60
2024-04-06T01:58:22.256Z,58.65
2024-04-06T01:59:22.341Z,52.53
2024-04-06T02:00:22.293Z,53.50
2024-04-06T02:01:22.246Z,55.75
2024-04-06T02:02:22.228Z,53.66
2024-04-06T02:03:22.248Z,47.86
2024-04-06T02:04:22.232Z,55.11
2024-04-06T02:05:22.214Z,54.30
2024-04-06T02:06:22.222Z,54.62
2024-04-06T02:07:22.166Z,53.17
2024-04-06T02:08:22.149Z,45.76
2024-04-06T02:09:22.164Z,46.25
2024-04-06T02:10:22.219Z,50.11
2024-04-06T02:11:22.112Z,58.01
2024-04-06T02:12:22.104Z,63.97
2024-04-06T02:13:22.102Z,48.50
2024-04-06T02:14:22.091Z,53.98
2024-04-06T02:15:22.116Z,61.87
2024-04-06T02:16:22.067Z,53.98
2024-04-06T02:17:22.054Z,55.11
2024-04-06T02:18:22.039Z,48.18
2024-04-06T02:19:22.057Z,59.78
2024-04-06T02:20:22.074Z,50.76
2024-04-06T02:21:22.062Z,63.16
2024-04-06T02:22:21.989Z,52.69
2024-04-06T02:23:22.003Z,49.47
2024-04-06T02:24:21.947Z,61.39
2024-04-06T02:25:21.965Z,63.16
2024-04-06T02:26:22.000Z,53.01
2024-04-06T02:27:21.963Z,51.24
2024-04-06T02:28:21.932Z,63.65
2024-04-06T02:29:22.941Z,64.61
2024-04-06T02:30:21.915Z,48.50
2024-04-06T02:31:21.893Z,50.27
2024-04-06T02:32:21.878Z,62.36
2024-04-06T02:33:21.865Z,57.85
2024-04-06T02:34:21.835Z,54.46
2024-04-06T02:35:21.860Z,50.43
2024-04-06T02:36:21.867Z,58.81
2024-04-06T02:37:21.844Z,61.23
2024-04-06T02:38:21.826Z,65.90
2024-04-06T02:39:21.818Z,58.17
2024-04-06T02:40:21.759Z,61.55
2024-04-06T02:41:21.801Z,52.37
2024-04-06T02:42:21.790Z,57.04
2024-04-06T02:43:21.712Z,61.87
2024-04-06T02:44:21.714Z,51.40
2024-04-06T02:45:21.745Z,48.82
2024-04-06T02:46:21.712Z,57.85
2024-04-06T02:47:21.716Z,65.26
2024-04-06T02:48:21.695Z,65.42
2024-04-06T02:49:21.675Z,66.06
2024-04-06T02:50:22.650Z,58.01
2024-04-06T02:51:21.612Z,54.14
2024-04-06T02:52:21.669Z,63.97
2024-04-06T02:53:21.640Z,60.59
2024-04-06T02:54:21.605Z,60.59
2024-04-06T02:55:21.595Z,65.58
2024-04-06T02:56:21.591Z,63.97
2024-04-06T02:57:21.554Z,50.27
2024-04-06T02:58:21.557Z,62.68
2024-04-06T02:59:21.559Z,56.24
2024-04-06T03:00:21.564Z,57.69
2024-04-06T03:01:21.506Z,63.16
2024-04-06T03:02:21.512Z,53.66
2024-04-06T03:03:21.585Z,50.60
2024-04-06T03:04:21.480Z,60.26
2024-04-06T03:05:21.502Z,66.23
2024-04-06T03:06:21.468Z,60.75
2024-04-06T03:07:21.485Z,62.84
2024-04-06T03:08:21.467Z,63.16
2024-04-06T03:09:21.469Z,62.04
2024-04-06T03:10:21.420Z,50.11
2024-04-06T03:11:21.415Z,60.42
2024-04-06T03:12:21.372Z,56.56
2024-04-06T03:13:21.386Z,54.62
2024-04-06T03:14:21.399Z,66.39
2024-04-06T03:15:21.341Z,60.91
2024-04-06T03:16:21.397Z,57.36
2024-04-06T03:17:21.342Z,61.87
2024-04-06T03:18:21.327Z,59.78
2024-04-06T03:19:21.314Z,69.29
2024-04-06T03:20:21.327Z,60.26
2024-04-06T03:21:21.318Z,56.40
2024-04-06T03:22:21.311Z,57.85
2024-04-06T03:23:21.273Z,64.45
2024-04-06T03:24:21.255Z,59.78
2024-04-06T03:25:21.266Z,61.23
2024-04-06T03:26:21.224Z,60.91
2024-04-06T03:27:21.218Z,63.33
2024-04-06T03:28:21.384Z,59.14
2024-04-06T03:29:22.175Z,58.81
2024-04-06T03:30:21.179Z,57.20
2024-04-06T03:31:21.172Z,59.30
2024-04-06T03:32:21.162Z,59.46
2024-04-06T03:33:21.134Z,60.10
2024-04-06T03:34:21.109Z,60.75
2024-04-06T03:35:21.120Z,60.42
2024-04-06T03:36:22.183Z,60.26
2024-04-06T03:37:21.089Z,66.87
2024-04-06T03:38:21.074Z,59.30
2024-04-06T03:39:21.089Z,65.42
2024-04-06T03:40:21.074Z,65.26
2024-04-06T03:41:21.049Z,58.49
2024-04-06T03:42:21.030Z,60.75
2024-04-06T03:43:21.017Z,62.84
2024-04-06T03:44:21.021Z,54.79
2024-04-06T03:45:21.000Z,53.82
2024-04-06T03:46:20.995Z,65.90
2024-04-06T03:47:20.970Z,65.10
2024-04-06T03:48:20.959Z,65.42
2024-04-06T03:49:20.967Z,68.32
2024-04-06T03:50:20.968Z,62.36
2024-04-06T03:51:20.941Z,66.71
2024-04-06T03:52:21.077Z,58.65
2024-04-06T03:53:20.946Z,63.49
2024-04-06T03:54:20.916Z,63.81
2024-04-06T03:55:20.906Z,67.19
2024-04-06T03:56:20.862Z,64.45
2024-04-06T03:57:20.899Z,61.55
2024-04-06T03:58:20.857Z,63.16
2024-04-06T03:59:20.810Z,64.61
2024-04-06T04:00:20.818Z,65.90
2024-04-06T04:01:20.842Z,61.55
2024-04-06T04:02:20.830Z,66.23
2024-04-06T04:03:20.814Z,67.68
2024-04-06T04:04:20.799Z,53.01
2024-04-06T04:05:20.771Z,65.10
2024-04-06T04:06:20.755Z,66.87
2024-04-06T04:07:20.743Z,68.96
2024-04-06T04:08:20.737Z,66.71
2024-04-06T04:09:20.752Z,63.81
2024-04-06T04:10:20.714Z,64.94
2024-04-06T04:11:20.681Z,70.25
2024-04-06T04:12:21.753Z,58.01
2024-04-06T04:13:20.961Z,54.14
2024-04-06T04:14:20.671Z,54.46
2024-04-06T04:15:20.637Z,64.61
2024-04-06T04:16:21.544Z,67.84
2024-04-06T04:17:20.616Z,63.49
2024-04-06T04:18:20.617Z,66.87
2024-04-06T04:19:20.668Z,60.42
2024-04-06T04:20:20.679Z,66.71
2024-04-06T04:21:20.592Z,65.58
2024-04-06T04:22:20.542Z,56.07
2024-04-06T04:23:21.557Z,64.45
2024-04-06T04:24:20.566Z,59.14
2024-04-06T04:25:20.544Z,60.59
2024-04-06T04:26:20.535Z,66.55
2024-04-06T04:27:20.528Z,68.32
2024-04-06T04:28:20.511Z,67.68
2024-04-06T04:29:20.479Z,66.23
2024-04-06T04:30:20.454Z,69.61
2024-04-06T04:31:20.454Z,62.84
2024-04-06T04:32:20.438Z,62.20
2024-04-06T04:33:20.841Z,63.81
2024-04-06T04:34:20.406Z,70.74
2024-04-06T04:35:20.437Z,66.55
2024-04-06T04:36:20.414Z,63.97
2024-04-06T04:37:20.401Z,67.68
2024-04-06T04:38:20.422Z,69.77
2024-04-06T04:39:20.362Z,67.03
2024-04-06T04:40:20.373Z,66.55
2024-04-06T04:41:20.333Z,65.42
2024-04-06T04:42:20.327Z,57.85
2024-04-06T04:43:20.359Z,65.26
2024-04-06T04:44:35.736Z,63.81
2024-04-06T04:45:22.347Z,66.39
2024-04-06T04:46:20.284Z,68.00
2024-04-06T04:47:20.314Z,68.16
2024-04-06T04:48:20.265Z,66.23
2024-04-06T04:49:20.284Z,65.74
2024-04-06T04:50:20.276Z,64.61
2024-04-06T04:51:20.217Z,63.33
2024-04-06T04:52:20.237Z,65.10
2024-04-06T04:53:20.199Z,69.45
2024-04-06T04:54:20.213Z,64.61
2024-04-06T04:55:20.773Z,63.16
2024-04-06T04:56:20.173Z,57.85
2024-04-06T04:57:20.149Z,63.16
2024-04-06T04:58:20.136Z,64.78
2024-04-06T04:59:20.139Z,67.35
2024-04-06T05:00:20.135Z,64.61
2024-04-06T05:01:20.108Z,64.45
2024-04-06T05:02:20.118Z,63.81
2024-04-06T05:03:20.101Z,62.36
2024-04-06T05:04:20.087Z,69.61
2024-04-06T05:05:20.073Z,63.00
2024-04-06T05:06:20.060Z,67.51
2024-04-06T05:07:20.049Z,66.87
2024-04-06T05:08:21.016Z,60.91
2024-04-06T05:09:20.001Z,63.16
2024-04-06T05:10:19.993Z,63.49
2024-04-06T05:11:20.069Z,68.16
2024-04-06T05:12:19.955Z,65.26
2024-04-06T05:13:19.972Z,62.84
2024-04-06T05:14:19.945Z,68.80
2024-04-06T05:15:19.958Z,63.65
2024-04-06T05:16:19.976Z,61.87
2024-04-06T05:17:19.951Z,64.13
2024-04-06T05:18:19.902Z,61.71
2024-04-06T05:19:19.987Z,60.10
2024-04-06T05:20:19.868Z,66.39
2024-04-06T05:21:19.906Z,69.77
2024-04-06T05:22:19.838Z,63.65
2024-04-06T05:23:19.857Z,64.45
2024-04-06T05:24:19.835Z,64.45
2024-04-06T05:25:19.831Z,68.16
2024-04-06T05:26:19.817Z,68.96
2024-04-06T05:27:19.802Z,64.78
2024-04-06T05:28:19.798Z,64.13
2024-04-06T05:29:19.777Z,68.16
2024-04-06T05:30:19.785Z,64.61
2024-04-06T05:31:19.730Z,69.93
2024-04-06T05:32:19.752Z,61.07
2024-04-06T05:33:19.803Z,68.80
2024-04-06T05:34:19.762Z,68.32
2024-04-06T05:35:19.712Z,66.71
2024-04-06T05:36:19.674Z,67.68
2024-04-06T05:37:19.670Z,67.68
2024-04-06T05:38:19.663Z,66.06
2024-04-06T05:39:19.700Z,68.96
2024-04-06T05:40:19.626Z,64.78
2024-04-06T05:41:19.626Z,64.45
2024-04-06T05:42:19.630Z,65.10
2024-04-06T05:43:19.613Z,68.80
2024-04-06T05:44:19.606Z,68.64
2024-04-06T05:45:19.631Z,67.51
2024-04-06T05:46:19.575Z,63.00
2024-04-06T05:47:19.582Z,64.45
2024-04-06T05:48:19.572Z,60.42
2024-04-06T05:49:19.527Z,60.42
2024-04-06T05:50:19.544Z,62.36
2024-04-06T05:51:19.531Z,57.69
2024-04-06T05:52:19.804Z,63.65
2024-04-06T05:53:19.512Z,68.48
2024-04-06T05:54:19.543Z,60.91
2024-04-06T05:55:19.509Z,66.06
2024-04-06T05:56:19.447Z,67.51
2024-04-06T05:57:19.463Z,65.90
2024-04-06T05:58:19.446Z,67.19
2024-04-06T05:59:19.435Z,65.90
2024-04-06T06:00:19.443Z,67.35
2024-04-06T06:01:19.443Z,68.16
2024-04-06T06:02:19.414Z,66.39
2024-04-06T06:03:19.416Z,67.35
2024-04-06T06:04:19.411Z,62.52
2024-04-06T06:05:19.363Z,64.13
2024-04-06T06:06:19.389Z,62.36
2024-04-06T06:07:19.394Z,64.78
2024-04-06T06:08:19.342Z,62.20
2024-04-06T06:09:19.308Z,64.13
2024-04-06T06:10:19.300Z,68.16
2024-04-06T06:11:19.291Z,69.45
2024-04-06T06:12:19.380Z,69.29
2024-04-06T06:13:19.269Z,67.35
2024-04-06T06:14:21.823Z,63.97
2024-04-06T06:15:20.299Z,65.42
2024-04-06T06:16:20.107Z,62.68
2024-04-06T06:17:19.274Z,70.09
2024-04-06T06:18:19.237Z,63.16
2024-04-06T06:19:19.227Z,65.74
2024-04-06T06:20:19.205Z,64.78
2024-04-06T06:21:19.185Z,67.68
2024-04-06T06:22:19.184Z,64.29
2024-04-06T06:23:19.167Z,63.16
2024-04-06T06:24:19.136Z,68.80
2024-04-06T06:25:20.238Z,66.06
2024-04-06T06:26:19.154Z,69.45
2024-04-06T06:27:19.123Z,66.23
2024-04-06T06:28:19.124Z,68.80
2024-04-06T06:29:19.119Z,63.65
2024-04-06T06:30:19.103Z,67.19
2024-04-06T06:31:19.138Z,65.58
2024-04-06T06:32:19.086Z,65.58
2024-04-06T06:33:19.101Z,63.00
2024-04-06T06:34:19.094Z,61.39
2024-04-06T06:35:19.038Z,65.74
2024-04-06T06:38:20.028Z,68.96
2024-04-06T06:41:20.608Z,63.49
2024-04-06T06:42:18.991Z,63.00
2024-04-06T06:43:18.974Z,66.55
2024-04-06T06:44:18.961Z,64.29
2024-04-06T06:45:18.942Z,54.95
2024-04-06T06:46:18.940Z,68.00
2024-04-06T06:47:18.946Z,63.97
2024-04-06T06:48:18.883Z,61.71
2024-04-06T06:49:18.894Z,66.39
2024-04-06T06:50:18.901Z,66.23
2024-04-06T06:51:18.937Z,64.45
2024-04-06T06:52:18.878Z,65.10
2024-04-06T06:53:18.852Z,64.13
2024-04-06T06:54:18.828Z,63.65
2024-04-06T06:55:18.867Z,62.36
2024-04-06T06:56:18.816Z,63.97
2024-04-06T06:57:18.831Z,64.61
2024-04-06T06:58:18.802Z,63.33
2024-04-06T06:59:18.897Z,62.20
2024-04-06T07:00:20.534Z,64.94
2024-04-06T07:01:19.754Z,63.49
2024-04-06T07:02:18.771Z,65.26
2024-04-06T07:03:18.752Z,61.39
2024-04-06T07:04:18.770Z,65.26
2024-04-06T07:05:18.756Z,61.87
2024-04-06T07:07:06.685Z,63.81
2024-04-06T07:07:20.726Z,66.23
2024-04-06T07:08:18.728Z,62.84
2024-04-06T07:09:18.703Z,61.07
2024-04-06T07:10:18.731Z,60.26
2024-04-06T07:11:18.728Z,60.91
2024-04-06T07:12:18.657Z,65.58
2024-04-06T07:13:18.662Z,64.78
2024-04-06T07:14:18.622Z,64.94
2024-04-06T07:15:18.631Z,62.84
2024-04-06T07:16:18.585Z,65.90
2024-04-06T07:17:18.576Z,63.00
2024-04-06T07:18:18.600Z,65.90
2024-04-06T07:19:18.573Z,66.55
2024-04-06T07:20:18.551Z,65.26
2024-04-06T07:21:18.580Z,63.00
2024-04-06T07:22:18.549Z,64.78
2024-04-06T07:23:18.508Z,66.71
2024-04-06T07:24:18.503Z,66.71
2024-04-06T07:25:18.500Z,66.71
2024-04-06T07:26:18.485Z,67.68
2024-04-06T07:27:18.482Z,64.78
2024-04-06T07:28:18.494Z,67.19
2024-04-06T07:29:18.462Z,68.80
2024-04-06T07:30:18.447Z,67.03
2024-04-06T07:31:18.473Z,66.39
2024-04-06T07:32:18.441Z,66.23
2024-04-06T07:33:18.430Z,66.23
2024-04-06T07:34:18.397Z,67.51
2024-04-06T07:35:18.376Z,68.64
2024-04-06T07:36:18.427Z,68.64
2024-04-06T07:37:18.422Z,66.39
2024-04-06T07:38:20.617Z,70.09
2024-04-06T07:39:20.174Z,70.25
2024-04-06T07:40:20.710Z,68.48
2024-04-06T07:41:18.350Z,71.06
2024-04-06T07:42:18.377Z,69.93
2024-04-06T07:43:18.352Z,70.25
2024-04-06T07:44:18.324Z,70.42
2024-04-06T07:45:18.309Z,67.03
2024-04-06T07:46:18.336Z,71.38
2024-04-06T07:47:18.269Z,68.32
2024-04-06T07:48:18.322Z,68.16
2024-04-06T07:49:18.264Z,68.16
2024-04-06T07:50:18.242Z,68.16
2024-04-06T07:51:18.211Z,69.61
2024-04-06T07:52:18.223Z,69.77
2024-04-06T07:53:18.211Z,67.84
2024-04-06T07:54:18.223Z,68.48
2024-04-06T07:55:18.181Z,68.32
2024-04-06T07:56:18.164Z,67.51
2024-04-06T07:57:18.140Z,69.93
2024-04-06T07:58:18.188Z,68.00
2024-04-06T07:59:18.137Z,69.29
2024-04-06T08:00:18.152Z,68.48
2024-04-06T08:01:18.140Z,69.93
2024-04-06T08:02:18.100Z,66.87
2024-04-06T08:03:18.130Z,68.00
2024-04-06T08:04:18.101Z,67.19
2024-04-06T08:05:18.089Z,67.68
2024-04-06T08:06:18.208Z,67.51
2024-04-06T08:07:18.103Z,66.06
2024-04-06T08:08:18.104Z,64.29
2024-04-06T08:09:18.024Z,66.06
2024-04-06T08:10:19.058Z,68.80
2024-04-06T08:11:18.027Z,64.61
2024-04-06T08:12:18.025Z,62.68
2024-04-06T08:13:18.018Z,59.30
2024-04-06T08:14:25.029Z,66.55
2024-04-06T08:15:18.982Z,65.10
2024-04-06T08:16:18.974Z,69.13
2024-04-06T08:17:17.934Z,67.51
2024-04-06T08:18:17.989Z,63.81
2024-04-06T08:19:17.936Z,65.58
2024-04-06T08:20:17.962Z,65.26
2024-04-06T08:21:17.910Z,67.84
2024-04-06T08:22:17.887Z,68.48
2024-04-06T08:23:17.903Z,66.23
2024-04-06T08:24:17.862Z,67.68
2024-04-06T08:25:17.915Z,67.68
2024-04-06T08:26:17.867Z,67.35
2024-04-06T08:27:17.918Z,67.19
2024-04-06T08:28:17.972Z,68.00
2024-04-06T08:29:17.919Z,63.00
2024-04-06T08:30:17.912Z,63.97
2024-04-06T08:31:17.859Z,61.87
2024-04-06T08:32:17.838Z,68.96
2024-04-06T08:33:17.783Z,64.45
2024-04-06T08:34:17.843Z,66.06
2024-04-06T08:35:18.048Z,63.16
2024-04-06T08:36:18.110Z,66.71
2024-04-06T08:37:18.059Z,66.23
2024-04-06T08:38:17.764Z,67.84
2024-04-06T08:39:17.838Z,67.35
2024-04-06T08:40:17.785Z,62.04
2024-04-06T08:41:17.800Z,66.55
2024-04-06T08:42:17.743Z,65.42
2024-04-06T08:43:17.764Z,66.23
2024-04-06T08:44:17.724Z,70.09
2024-04-06T08:45:17.783Z,69.29
2024-04-06T08:46:17.679Z,70.42
2024-04-06T08:47:17.731Z,67.51
2024-04-06T08:48:17.722Z,68.32
2024-04-06T08:49:17.759Z,66.71
2024-04-06T08:50:17.641Z,69.93
2024-04-06T08:51:17.663Z,67.51
2024-04-06T08:52:17.775Z,68.16
2024-04-06T08:53:17.595Z,68.80
2024-04-06T08:54:17.794Z,72.19
2024-04-06T08:55:17.658Z,68.48
2024-04-06T08:56:17.536Z,69.45
2024-04-06T08:57:17.792Z,64.94
2024-04-06T08:58:17.631Z,66.55
2024-04-06T08:59:17.614Z,67.68
2024-04-06T09:00:17.654Z,67.35
2024-04-06T09:01:17.589Z,66.55
2024-04-06T09:02:17.615Z,68.80
2024-04-06T09:03:17.516Z,65.10
2024-04-06T09:04:17.548Z,64.78
2024-04-06T09:05:17.453Z,68.32
2024-04-06T09:06:17.740Z,66.55
2024-04-06T09:07:17.502Z,67.84
2024-04-06T09:08:18.054Z,68.64
2024-04-06T09:09:17.557Z,70.74
2024-04-06T09:10:17.449Z,68.96
2024-04-06T09:11:17.817Z,64.78
2024-04-06T09:12:17.415Z,68.80
2024-04-06T09:13:18.136Z,68.64
2024-04-06T09:14:17.396Z,67.68
2024-04-06T09:15:17.563Z,69.45
2024-04-06T09:16:17.411Z,68.80
2024-04-06T09:17:17.369Z,69.29
2024-04-06T09:18:17.429Z,69.93
2024-04-06T09:19:17.441Z,69.77
2024-04-06T09:20:17.300Z,68.32
2024-04-06T09:21:17.350Z,64.61
2024-04-06T09:22:17.447Z,71.06
2024-04-06T09:23:17.360Z,69.29
2024-04-06T09:24:17.862Z,70.25
2024-04-06T09:25:17.439Z,69.29
2024-04-06T09:26:17.243Z,68.48
2024-04-06T09:27:17.294Z,69.29
2024-04-06T09:28:17.431Z,71.06
2024-04-06T09:29:17.258Z,70.58
2024-04-06T09:30:17.482Z,68.16
2024-04-06T09:31:17.238Z,66.87
2024-04-06T09:32:17.229Z,67.84
2024-04-06T09:33:17.238Z,70.09
2024-04-06T09:34:17.227Z,67.84
2024-04-06T09:35:17.150Z,67.19
2024-04-06T09:36:17.206Z,65.90
2024-04-06T09:37:17.381Z,65.58
2024-04-06T09:38:17.167Z,65.26
2024-04-06T09:39:17.139Z,70.25
2024-04-06T09:40:17.208Z,69.29
2024-04-06T09:41:17.338Z,67.03
2024-04-06T09:42:17.100Z,68.64
2024-04-06T09:43:17.119Z,63.33
2024-04-06T09:44:17.067Z,69.45
2024-04-06T09:45:17.049Z,67.84
2024-04-06T09:46:17.127Z,62.52
2024-04-06T09:47:17.087Z,68.16
2024-04-06T09:48:17.028Z,68.64
2024-04-06T09:49:17.138Z,70.42
2024-04-06T09:50:18.060Z,69.13
2024-04-06T09:51:17.053Z,66.23
2024-04-06T09:52:17.081Z,67.68
2024-04-06T09:53:16.982Z,69.61
2024-04-06T09:54:16.993Z,69.45
2024-04-06T09:55:17.092Z,64.94
2024-04-06T09:56:17.060Z,70.09
2024-04-06T09:57:16.982Z,68.16
2024-04-06T09:58:17.058Z,64.61
2024-04-06T09:59:16.902Z,67.51
2024-04-06T10:00:16.960Z,70.09
2024-04-06T10:01:16.943Z,67.03
2024-04-06T10:02:16.947Z,67.84
2024-04-06T10:03:16.942Z,67.03
2024-04-06T10:04:16.903Z,69.61
2024-04-06T10:05:16.840Z,69.45
2024-04-06T10:06:16.874Z,69.29
2024-04-06T10:07:16.872Z,68.48
2024-04-06T10:08:16.890Z,68.32
2024-04-06T10:09:16.844Z,66.23
2024-04-06T10:10:16.952Z,68.48
2024-04-06T10:11:16.793Z,63.00
2024-04-06T10:12:16.771Z,65.58
2024-04-06T10:13:16.851Z,69.93
2024-04-06T10:14:19.316Z,67.84
2024-04-06T10:15:17.821Z,67.68
2024-04-06T10:16:16.791Z,66.71
2024-04-06T10:17:16.761Z,63.81
2024-04-06T10:18:16.727Z,67.35
2024-04-06T10:19:16.755Z,66.39
2024-04-06T10:20:16.706Z,66.87
2024-04-06T10:21:16.675Z,68.00
2024-04-06T10:22:16.786Z,64.78
2024-04-06T10:23:16.682Z,65.10
2024-04-06T10:24:16.672Z,64.29
2024-04-06T10:25:16.742Z,66.39
2024-04-06T10:26:16.680Z,67.68
2024-04-06T10:27:16.684Z,68.32
2024-04-06T10:28:16.687Z,66.71
2024-04-06T10:29:17.164Z,66.39
2024-04-06T10:30:16.622Z,66.23
2024-04-06T10:31:16.645Z,68.80
2024-04-06T10:32:16.636Z,66.55
2024-04-06T10:33:16.635Z,68.00
2024-04-06T10:34:16.628Z,69.13
2024-04-06T10:35:16.611Z,68.96
2024-04-06T10:36:16.545Z,64.45
2024-04-06T10:37:16.585Z,67.35
2024-04-06T10:38:16.524Z,65.74
2024-04-06T10:39:16.635Z,66.06
2024-04-06T10:40:16.546Z,68.48
2024-04-06T10:41:16.674Z,69.61
2024-04-06T10:42:16.481Z,66.71
2024-04-06T10:43:16.481Z,66.55
2024-04-06T10:44:16.453Z,67.51
2024-04-06T10:45:16.466Z,67.35
2024-04-06T10:46:16.477Z,68.48
2024-04-06T10:47:16.570Z,68.16
2024-04-06T10:48:16.433Z,67.03
2024-04-06T10:49:16.449Z,65.58
2024-04-06T10:50:16.391Z,66.06
2024-04-06T10:51:16.493Z,66.55
2024-04-06T10:52:16.578Z,70.09
2024-04-06T10:53:16.389Z,68.32
2024-04-06T10:54:16.460Z,65.26
2024-04-06T10:55:16.467Z,66.23
2024-04-06T10:56:16.371Z,66.23
2024-04-06T10:57:16.386Z,64.78
2024-04-06T10:58:16.377Z,67.68
2024-04-06T10:59:16.488Z,70.42
2024-04-06T11:00:16.286Z,68.80
2024-04-06T11:01:16.296Z,65.26
2024-04-06T11:02:16.287Z,67.35
2024-04-06T11:03:16.317Z,66.39
2024-04-06T11:04:16.334Z,67.68
2024-04-06T11:05:16.240Z,64.61
2024-04-06T11:06:16.249Z,69.61
2024-04-06T11:07:16.263Z,65.58
2024-04-06T11:08:16.265Z,68.32
2024-04-06T11:09:16.212Z,68.16
2024-04-06T11:10:16.255Z,67.84
2024-04-06T11:11:16.265Z,66.87
2024-04-06T11:12:16.273Z,67.84
2024-04-06T11:13:16.230Z,68.00
2024-04-06T11:14:16.255Z,68.48
2024-04-06T11:15:16.200Z,68.32
2024-04-06T11:16:16.212Z,67.03
2024-04-06T11:17:16.123Z,66.87
2024-04-06T11:18:16.127Z,67.84
2024-04-06T11:19:16.094Z,66.55
2024-04-06T11:20:16.100Z,66.55
2024-04-06T11:21:16.074Z,67.51
2024-04-06T11:22:17.098Z,65.74
2024-04-06T11:23:16.116Z,67.51
2024-04-06T11:24:16.066Z,65.90
2024-04-06T11:25:16.071Z,66.87
2024-04-06T11:26:16.046Z,65.58
2024-04-06T11:27:16.055Z,66.39
2024-04-06T11:28:16.079Z,66.71
2024-04-06T11:29:16.008Z,67.35
2024-04-06T11:30:16.000Z,66.55
2024-04-06T11:31:16.055Z,65.58
2024-04-06T11:32:16.004Z,66.23
2024-04-06T11:33:15.997Z,66.55
2024-04-06T11:34:16.029Z,67.51
2024-04-06T11:35:15.990Z,64.45
2024-04-06T11:36:15.976Z,68.80
2024-04-06T11:37:15.956Z,71.54
2024-04-06T11:38:16.014Z,66.39
2024-04-06T11:39:16.013Z,67.51
2024-04-06T11:40:15.989Z,68.48
2024-04-06T11:41:15.865Z,70.09
2024-04-06T11:42:15.969Z,70.25
2024-04-06T11:43:15.905Z,69.29
2024-04-06T11:44:15.899Z,68.16
2024-04-06T11:45:15.872Z,68.80
2024-04-06T11:46:15.853Z,66.71
2024-04-06T11:47:15.937Z,68.00
2024-04-06T11:48:15.900Z,68.64
2024-04-06T11:49:15.903Z,68.16
2024-04-06T11:50:15.793Z,65.58
2024-04-06T11:51:15.849Z,68.32
2024-04-06T11:52:15.779Z,67.84
2024-04-06T11:53:15.813Z,67.68
2024-04-06T11:54:15.803Z,67.51
2024-04-06T11:55:15.781Z,69.29
2024-04-06T11:56:15.751Z,69.93
2024-04-06T11:57:15.717Z,68.48
2024-04-06T11:58:15.731Z,69.61
2024-04-06T11:59:15.775Z,68.80
2024-04-06T12:00:17.459Z,65.42
2024-04-06T12:01:15.727Z,68.00
2024-04-06T12:02:15.668Z,67.84
2024-04-06T12:03:15.711Z,69.61
2024-04-06T12:04:15.700Z,65.26
2024-04-06T12:05:15.662Z,66.39
2024-04-06T12:06:15.626Z,65.58
2024-04-06T12:07:15.705Z,68.80
2024-04-06T12:08:15.683Z,67.84
2024-04-06T12:09:15.604Z,67.03
2024-04-06T12:10:16.693Z,66.71
2024-04-06T12:11:15.674Z,62.20
2024-04-06T12:12:15.582Z,67.51
2024-04-06T12:13:15.539Z,66.87
2024-04-06T12:14:15.598Z,67.03
2024-04-06T12:15:15.602Z,68.80
2024-04-06T12:16:15.614Z,66.55
2024-04-06T12:17:15.529Z,65.26
2024-04-06T12:18:15.507Z,64.61
2024-04-06T12:19:15.520Z,66.23
2024-04-06T12:20:15.503Z,67.68
2024-04-06T12:21:15.478Z,69.93
2024-04-06T12:22:15.522Z,67.19
2024-04-06T12:23:16.465Z,66.39
2024-04-06T12:24:15.446Z,68.48
2024-04-06T12:25:15.490Z,68.32
2024-04-06T12:26:15.437Z,67.68
2024-04-06T12:27:15.434Z,67.35
2024-04-06T12:28:15.552Z,69.61
2024-04-06T12:29:15.370Z,64.45
2024-04-06T12:30:15.406Z,62.84
2024-04-06T12:31:15.404Z,68.00
2024-04-06T12:32:15.384Z,66.71
2024-04-06T12:33:15.343Z,64.78
2024-04-06T12:34:15.368Z,65.90
2024-04-06T12:35:15.375Z,65.26
2024-04-06T12:36:15.322Z,68.32
2024-04-06T12:37:15.362Z,67.19
2024-04-06T12:38:16.033Z,67.35
2024-04-06T12:39:15.312Z,66.06
2024-04-06T12:40:15.308Z,68.48
2024-04-06T12:41:15.269Z,69.45
2024-04-06T12:42:15.260Z,67.03
2024-04-06T12:43:15.324Z,64.45
2024-04-06T12:44:15.548Z,67.35
2024-04-06T12:45:15.215Z,68.80
2024-04-06T12:46:15.286Z,66.87
2024-04-06T12:47:16.200Z,67.35
2024-04-06T12:48:15.200Z,66.55
2024-04-06T12:49:15.246Z,70.25
2024-04-06T12:50:15.182Z,67.51
2024-04-06T12:51:15.201Z,70.09
2024-04-06T12:52:15.218Z,70.09
2024-04-06T12:53:15.156Z,69.13
2024-04-06T12:54:15.187Z,65.26
2024-04-06T12:55:15.196Z,65.42
2024-04-06T12:56:15.142Z,67.68